LICB

Details ICAO LICB (CIY)
Name Comiso
Region Italy
Timezone Europe/Rome (UTC+2.0)
Plans Departing 42
Arriving 53
Stats Elevation 755 ft / 230 m (AMSL)
Location 36.995100° 14.607800°
Runways 1
Magnetic Variation 3.196° E
Sunrise 2018-10-21 05:15:40 UTC / 2018-10-21 07:15:40 Local
Sunset 2018-10-21 16:19:04 UTC / 2018-10-21 18:19:04 Local
Advertisement - Login to hide

Runways

ID Width Length Bearing (true/mag) Surface Threshold Overrun Markings Lighting
05 148 ft / 45 m 8,335 ft / 2,540 m 50.03° / 46.84° ASPHALT 0 ft / 0 m 0 ft / 0 m PREC-APP CENTERLINE EDGE THRESHOLD CALVERT REIL-OMNI
23 148 ft / 45 m 8,335 ft / 2,540 m 230.05° / 226.85° ASPHALT 0 ft / 0 m 0 ft / 0 m PREC-APP CENTERLINE EDGE THRESHOLD SALS REIL-OMNI

Approach Navaids

Runway Type Ident Frequency Range Bearing (true/mag) Slope Elevation
05 LOC-ILS ICMS 108.95 MHz 18 nm / 33 km 50.04° / 46.84° - 755 ft / 230 m (AMSL)
05 GS ICMS 108.95 MHz 10 nm / 19 km 50.04° / 46.84° 3.00° 755 ft / 230 m (AMSL)

Map

Weather


0- 5 10 15 20 25 30 35+ Temperature / °C

Clouds and Precipitation
Forecast for 2018-10-21 18:00 UTC. Updated an hour ago

Ground ~20,000 ft ~40,000 ft Winds

METAR

LICB 211550Z 23006KT 9999 SCT030TCU 21/18 Q1015

TAF

Not found

Frequencies

Tower 125.72 MHz Comiso Tower
Warning: Do not use this data for real-world aviation or navigation. No guarantee of current accuracy is given.